No particular awareness of the weather is required.    There are no Weather-warnings


Meteo18 Weather Cam more information Meteo18 Weather Cam


Thunder radar more information blitzortung!


Rain radar more information rain snow radar


Visit our other weather sites:

Template documentation
and downloads

And another site



Weather Underground History page Text

Daily Summary for February 13, 2016 Units:  Metric    English   Both
« Previous Day
Next Day »
Daily Weekly Monthly Yearly Custom
  High: Low: Average:
Temperature: 10.1 °C 5.6 °C 7.5 °C
Dew Point: 9.0 °C 4.8 °C 6.3 °C
Humidity: 98 % 83 % 92 %
Wind Speed: 45.1 km/h 0.0 km/h 7 km/h
Wind Gust: 48.3 km/h - -
Wind:- - SW
Pressure: 995.1 hPa 984.3 hPa -
Precipitation: 11.7 mm    
Historical Graphs
 
 
Tabular Data for February 13, 2016
Time Temperature Dew Point Pressure Wind Wind Speed Wind Gust Humidity Rainfall Rate (Hourly)
00:12 6.9 °C 6.2 °C 995.1 hPa ESE 1.6 km/h 11.3 km/h 95 % 0.0 mm
00:17 6.9 °C 6.2 °C 995.1 hPa Calm   11.3 km/h 95 % 0.0 mm
00:22 6.9 °C 6.2 °C 995.1 hPa SW 1.6 km/h 8.0 km/h 95 % 0.3 mm
00:27 6.9 °C 6.2 °C 995.1 hPa SW 1.6 km/h 8.0 km/h 95 % 0.3 mm
00:32 6.9 °C 6.2 °C 995.1 hPa WSW 1.6 km/h 8.0 km/h 95 % 0.3 mm
00:37 6.9 °C 6.2 °C 995.1 hPa Calm   8.0 km/h 95 % 0.3 mm
00:42 6.9 °C 6.2 °C 995.1 hPa SW 1.6 km/h 11.3 km/h 95 % 0.3 mm
00:47 6.9 °C 6.2 °C 995.1 hPa SW 3.2 km/h 11.3 km/h 95 % 0.3 mm
00:52 6.8 °C 6.1 °C 995.1 hPa WSW 4.8 km/h 14.5 km/h 95 % 0.3 mm
00:57 6.8 °C 6.1 °C 995.1 hPa SW 3.2 km/h 14.5 km/h 95 % 0.3 mm
01:02 6.8 °C 6.1 °C 995.1 hPa SW 4.8 km/h 14.5 km/h 95 % 0.3 mm
01:12 6.8 °C 6.1 °C 995.1 hPa SW 1.6 km/h 9.7 km/h 95 % 0.3 mm
01:17 6.8 °C 6.1 °C 995.1 hPa SW 3.2 km/h 12.9 km/h 95 % 0.0 mm
01:22 6.8 °C 6.1 °C 995.1 hPa SW 4.8 km/h 12.9 km/h 95 % 0.0 mm
01:27 6.8 °C 6.1 °C 995.1 hPa SW 9.7 km/h 12.9 km/h 95 % 0.0 mm
01:37 6.8 °C 6.1 °C 995.1 hPa SW 8.0 km/h 20.9 km/h 95 % 0.0 mm
01:42 6.8 °C 6.1 °C 995.1 hPa WSW 4.8 km/h 20.9 km/h 95 % 0.0 mm
01:47 6.7 °C 6.0 °C 995.1 hPa WSW 3.2 km/h 14.5 km/h 95 % 0.0 mm
01:52 6.7 °C 6.0 °C 995.1 hPa SSE 9.7 km/h 12.9 km/h 95 % 0.0 mm
01:57 6.7 °C 6.0 °C 995.1 hPa SW 6.4 km/h 12.9 km/h 95 % 0.0 mm
02:02 6.7 °C 6.0 °C 995.1 hPa WSW 6.4 km/h 11.3 km/h 95 % 0.0 mm
02:12 6.7 °C 5.8 °C 995.1 hPa South 1.6 km/h 17.7 km/h 94 % 0.0 mm
02:17 6.7 °C 5.8 °C 995.1 hPa SW 8.0 km/h 17.7 km/h 94 % 0.0 mm
02:22 6.7 °C 5.8 °C 995.1 hPa SSE 3.2 km/h 16.1 km/h 94 % 0.0 mm
02:32 6.7 °C 5.8 °C 995.1 hPa South 4.8 km/h 14.5 km/h 94 % 0.0 mm
02:37 6.6 °C 5.7 °C 995.1 hPa SW 6.4 km/h 14.5 km/h 94 % 0.0 mm
02:42 6.6 °C 5.7 °C 995.1 hPa SSW 3.2 km/h 14.5 km/h 94 % 0.0 mm
02:52 6.6 °C 5.7 °C 995.1 hPa WSW 3.2 km/h 11.3 km/h 94 % 0.0 mm
02:57 6.6 °C 5.7 °C 995.1 hPa SW 3.2 km/h 11.3 km/h 94 % 0.0 mm
03:02 6.6 °C 5.7 °C 995.1 hPa SW 4.8 km/h 11.3 km/h 94 % 0.0 mm
03:12 6.6 °C 5.9 °C 995.1 hPa SW 3.2 km/h 8.0 km/h 95 % 0.0 mm
03:17 6.6 °C 5.9 °C 995.1 hPa WSW 6.4 km/h 9.7 km/h 95 % 0.0 mm
03:22 6.6 °C 5.9 °C 995.1 hPa SW 3.2 km/h 9.7 km/h 95 % 0.0 mm
03:32 6.5 °C 5.8 °C 994.8 hPa WSW 3.2 km/h 11.3 km/h 95 % 0.0 mm
03:37 6.5 °C 5.8 °C 994.8 hPa NE 1.6 km/h 8.0 km/h 95 % 0.0 mm
03:42 6.5 °C 5.8 °C 994.5 hPa SW 8.0 km/h 9.7 km/h 95 % 0.0 mm
03:47 6.5 °C 5.6 °C 994.5 hPa SSW 3.2 km/h 9.7 km/h 94 % 0.0 mm
03:52 6.5 °C 5.8 °C 994.5 hPa SW 1.6 km/h 9.7 km/h 95 % 0.0 mm
04:02 6.4 °C 5.7 °C 994.1 hPa Calm   9.7 km/h 95 % 0.0 mm
04:12 6.3 °C 5.6 °C 994.1 hPa WSW 1.6 km/h 9.7 km/h 95 % 0.0 mm
04:17 6.3 °C 5.6 °C 994.1 hPa SW 1.6 km/h 4.8 km/h 95 % 0.0 mm
04:22 6.2 °C 5.5 °C 994.1 hPa Calm   4.8 km/h 95 % 0.0 mm
04:32 6.1 °C 5.4 °C 993.8 hPa SW 4.8 km/h 6.4 km/h 95 % 0.0 mm
04:42 6.0 °C 5.4 °C 993.5 hPa WSW 6.4 km/h 9.7 km/h 96 % 0.0 mm
04:47 6.0 °C 5.4 °C 993.5 hPa ESE 1.6 km/h 9.7 km/h 96 % 0.0 mm
04:52 6.0 °C 5.4 °C 993.5 hPa WSW 6.4 km/h 9.7 km/h 96 % 0.0 mm
04:57 6.0 °C 5.4 °C 993.5 hPa SW 3.2 km/h 8.0 km/h 96 % 0.0 mm
05:02 5.9 °C 5.2 °C 993.1 hPa SW 6.4 km/h 8.0 km/h 95 % 0.0 mm
05:07 5.8 °C 5.1 °C 993.1 hPa WSW 1.6 km/h 8.0 km/h 95 % 0.0 mm
05:12 5.7 °C 5.1 °C 993.1 hPa WSW 3.2 km/h 8.0 km/h 96 % 0.0 mm
05:17 5.7 °C 5.1 °C 992.8 hPa SW 3.2 km/h 6.4 km/h 96 % 0.0 mm
05:22 5.7 °C 5.1 °C 992.4 hPa WSW 1.6 km/h 6.4 km/h 96 % 0.0 mm
05:27 5.6 °C 5.0 °C 992.4 hPa SSE 1.6 km/h 6.4 km/h 96 % 0.0 mm
05:32 5.6 °C 5.0 °C 992.1 hPa SW 1.6 km/h 4.8 km/h 96 % 0.0 mm
05:37 5.7 °C 5.1 °C 992.1 hPa Calm   4.8 km/h 96 % 0.0 mm
05:42 5.7 °C 5.1 °C 992.1 hPa Calm   4.8 km/h 96 % 0.0 mm
05:47 5.7 °C 5.1 °C 992.1 hPa Calm   8.0 km/h 96 % 0.0 mm
05:52 5.7 °C 5.1 °C 992.1 hPa WSW 3.2 km/h 8.0 km/h 96 % 0.0 mm
05:57 5.7 °C 5.1 °C 992.1 hPa WSW 1.6 km/h 8.0 km/h 96 % 0.0 mm
06:02 5.7 °C 5.1 °C 992.4 hPa Calm   6.4 km/h 96 % 0.0 mm
06:07 5.7 °C 5.1 °C 992.4 hPa WSW 1.6 km/h 6.4 km/h 96 % 0.0 mm
06:12 5.8 °C 5.2 °C 992.4 hPa SW 3.2 km/h 6.4 km/h 96 % 0.0 mm
06:17 5.7 °C 5.1 °C 992.4 hPa SW 3.2 km/h 6.4 km/h 96 % 0.0 mm
06:22 5.8 °C 5.2 °C 992.4 hPa SW 1.6 km/h 8.0 km/h 96 % 0.0 mm
06:32 5.7 °C 5.1 °C 992.4 hPa SW 1.6 km/h 4.8 km/h 96 % 0.0 mm
06:37 5.7 °C 5.1 °C 992.4 hPa WSW 3.2 km/h 4.8 km/h 96 % 0.0 mm
06:42 5.7 °C 5.1 °C 992.1 hPa Calm   3.2 km/h 96 % 0.0 mm
06:52 5.7 °C 5.1 °C 991.8 hPa Calm   3.2 km/h 96 % 0.3 mm
06:57 5.7 °C 5.1 °C 991.8 hPa Calm   3.2 km/h 96 % 0.3 mm
07:02 5.6 °C 5.0 °C 991.8 hPa Calm     96 % 0.3 mm
07:17 5.7 °C 5.1 °C 991.8 hPa Calm   8.0 km/h 96 % 0.8 mm
07:22 5.7 °C 5.1 °C 991.4 hPa Calm   8.0 km/h 96 % 1.0 mm
07:32 5.7 °C 5.1 °C 991.4 hPa Calm   3.2 km/h 96 % 1.5 mm
07:37 5.7 °C 5.1 °C 991.4 hPa Calm   3.2 km/h 96 % 1.5 mm
07:42 5.7 °C 5.1 °C 991.1 hPa Calm   1.6 km/h 96 % 1.5 mm
07:47 5.7 °C 5.3 °C 991.1 hPa Calm   1.6 km/h 97 % 2.0 mm
07:52 5.7 °C 5.1 °C 990.7 hPa Calm   6.4 km/h 96 % 2.0 mm
07:57 5.7 °C 5.3 °C 990.7 hPa Calm   6.4 km/h 97 % 2.0 mm
08:02 5.7 °C 5.3 °C 990.7 hPa Calm   6.4 km/h 97 % 2.0 mm
08:12 5.7 °C 5.3 °C 990.1 hPa Calm   3.2 km/h 97 % 1.5 mm
08:17 5.7 °C 5.3 °C 990.1 hPa Calm   3.2 km/h 97 % 1.8 mm
08:22 5.7 °C 5.3 °C 990.1 hPa Calm   3.2 km/h 97 % 1.5 mm
08:27 5.7 °C 5.3 °C 989.7 hPa SSW 1.6 km/h 3.2 km/h 97 % 1.5 mm
08:32 5.7 °C 5.3 °C 989.7 hPa West 1.6 km/h 4.8 km/h 97 % 1.5 mm
08:37 5.7 °C 5.3 °C 989.7 hPa SW 1.6 km/h 6.4 km/h 97 % 1.8 mm
08:42 5.7 °C 5.3 °C 989.4 hPa WSW 3.2 km/h 8.0 km/h 97 % 1.8 mm
08:52 5.7 °C 5.3 °C 989.1 hPa WNW 3.2 km/h 9.7 km/h 97 % 1.8 mm
08:57 5.7 °C 5.3 °C 988.7 hPa WSW 4.8 km/h 14.5 km/h 97 % 1.8 mm
09:02 5.8 °C 5.4 °C 988.7 hPa WSW 3.2 km/h 14.5 km/h 97 % 1.8 mm
09:12 5.8 °C 5.4 °C 988.4 hPa Calm   9.7 km/h 97 % 1.5 mm
09:17 5.9 °C 5.5 °C 988.4 hPa West 1.6 km/h 14.5 km/h 97 % 1.5 mm
09:22 5.9 °C 5.5 °C 988.0 hPa West 1.6 km/h 14.5 km/h 97 % 1.5 mm
09:32 5.9 °C 5.5 °C 987.7 hPa SSW 6.4 km/h 11.3 km/h 97 % 1.0 mm
09:42 5.9 °C 5.5 °C 987.7 hPa SW 11.3 km/h 12.9 km/h 97 % 0.8 mm
09:52 6.0 °C 5.6 °C 987.7 hPa SSW 1.6 km/h 19.3 km/h 97 % 0.5 mm
09:57 6.1 °C 5.7 °C 987.7 hPa NE 3.2 km/h 19.3 km/h 97 % 0.5 mm
10:02 6.1 °C 5.7 °C 987.7 hPa WSW 4.8 km/h 9.7 km/h 97 % 0.8 mm
10:12 6.4 °C 6.1 °C 987.7 hPa West 8.0 km/h 9.7 km/h 98 % 1.3 mm
10:17 6.7 °C 6.4 °C 987.7 hPa SW 6.4 km/h 12.9 km/h 98 % 1.0 mm
10:22 6.8 °C 6.5 °C 987.4 hPa WSW 4.8 km/h 19.3 km/h 98 % 1.0 mm
10:27 7.1 °C 6.8 °C 987.4 hPa SW 8.0 km/h 19.3 km/h 98 % 1.0 mm
10:32 7.3 °C 7.0 °C 987.4 hPa SW 6.4 km/h 19.3 km/h 98 % 1.0 mm
10:37 7.7 °C 7.4 °C 987.0 hPa WSW 4.8 km/h 16.1 km/h 98 % 0.8 mm
10:42 7.8 °C 7.4 °C 987.0 hPa WSW 8.0 km/h 14.5 km/h 97 % 0.8 mm
10:47 7.8 °C 7.4 °C 986.7 hPa West 6.4 km/h 11.3 km/h 97 % 0.8 mm
10:52 8.1 °C 7.7 °C 987.0 hPa SSE 3.2 km/h 11.3 km/h 97 % 1.0 mm
11:02 8.3 °C 7.9 °C 986.7 hPa SE 9.7 km/h 12.9 km/h 97 % 1.0 mm
11:12 8.4 °C 8.0 °C 986.3 hPa SSW 4.8 km/h 12.9 km/h 97 % 0.5 mm
11:17 8.6 °C 8.2 °C 986.3 hPa WSW 3.2 km/h 12.9 km/h 97 % 0.8 mm
11:32 9.2 °C 8.7 °C 986.0 hPa SW 9.7 km/h 16.1 km/h 97 % 0.8 mm
11:42 9.6 °C 9.0 °C 985.3 hPa SW 4.8 km/h 16.1 km/h 96 % 0.8 mm
11:47 9.6 °C 8.8 °C 985.3 hPa West 45.1 km/h 45.1 km/h 95 % 0.5 mm
11:52 9.5 °C 8.1 °C 986.0 hPa SSE 27.4 km/h 45.1 km/h 91 % 0.8 mm
11:57 7.2 °C 5.0 °C 987.4 hPa ESE 11.3 km/h 48.3 km/h 86 % 3.3 mm
12:02 6.2 °C 4.8 °C 987.0 hPa SW 6.4 km/h 48.3 km/h 91 % 3.6 mm
12:12 6.3 °C 5.4 °C 987.0 hPa WSW 4.8 km/h 19.3 km/h 94 % 3.8 mm
12:17 6.4 °C 5.5 °C 986.7 hPa SSW 4.8 km/h 19.3 km/h 94 % 3.8 mm
12:22 6.6 °C 5.5 °C 986.7 hPa SW 1.6 km/h 16.1 km/h 93 % 3.8 mm
12:27 6.8 °C 5.7 °C 986.7 hPa WSW 4.8 km/h 12.9 km/h 93 % 3.8 mm
12:32 7.1 °C 5.9 °C 986.7 hPa SW 9.7 km/h 12.9 km/h 92 % 3.8 mm
12:37 7.2 °C 6.0 °C 986.7 hPa WSW 3.2 km/h 16.1 km/h 92 % 3.8 mm
12:42 7.4 °C 6.3 °C 986.7 hPa SW 11.3 km/h 20.9 km/h 93 % 3.8 mm
12:52 8.1 °C 6.6 °C 986.7 hPa SW 6.4 km/h 20.9 km/h 90 % 3.3 mm
12:57 8.1 °C 6.6 °C 986.3 hPa WSW 12.9 km/h 22.5 km/h 90 % 0.5 mm
13:02 8.2 °C 6.8 °C 986.3 hPa ENE 3.2 km/h 22.5 km/h 91 % 0.3 mm
13:07 8.2 °C 6.8 °C 986.7 hPa WSW 14.5 km/h 20.9 km/h 91 % 0.0 mm
13:12 8.2 °C 6.8 °C 986.7 hPa SSW 9.7 km/h 24.1 km/h 91 % 0.0 mm
13:17 8.2 °C 6.8 °C 986.3 hPa SW 16.1 km/h 24.1 km/h 91 % 0.0 mm
13:22 8.2 °C 6.8 °C 986.0 hPa SW 14.5 km/h 24.1 km/h 91 % 0.3 mm
13:27 8.3 °C 7.1 °C 986.0 hPa WSW 8.0 km/h 22.5 km/h 92 % 0.3 mm
13:32 8.6 °C 7.2 °C 985.7 hPa SW 9.7 km/h 22.5 km/h 91 % 0.3 mm
13:42 8.9 °C 7.0 °C 985.7 hPa WSW 16.1 km/h 24.1 km/h 88 % 0.3 mm
13:47 8.9 °C 6.9 °C 985.7 hPa SW 6.4 km/h 24.1 km/h 87 % 0.3 mm
13:52 9.0 °C 6.8 °C 985.7 hPa WSW 4.8 km/h 24.1 km/h 86 % 0.3 mm
14:02 9.2 °C 7.0 °C 985.7 hPa WSW 8.0 km/h 24.1 km/h 86 % 0.3 mm
14:07 9.2 °C 7.1 °C 985.7 hPa WSW 11.3 km/h 24.1 km/h 87 % 0.3 mm
14:12 9.2 °C 7.0 °C 985.3 hPa South 8.0 km/h 24.1 km/h 86 % 0.3 mm
14:22 9.2 °C 7.0 °C 985.3 hPa South 12.9 km/h 22.5 km/h 86 % 0.0 mm
14:27 9.3 °C 7.1 °C 985.0 hPa SW 8.0 km/h 22.5 km/h 86 % 0.0 mm
14:32 9.3 °C 6.9 °C 985.0 hPa South 9.7 km/h 22.5 km/h 85 % 0.0 mm
14:37 9.3 °C 7.1 °C 985.0 hPa West 9.7 km/h 22.5 km/h 86 % 0.0 mm
14:42 9.3 °C 7.1 °C 985.0 hPa WSW 6.4 km/h 29.0 km/h 86 % 0.0 mm
14:52 8.9 °C 7.2 °C 985.0 hPa WSW 6.4 km/h 29.0 km/h 89 % 0.3 mm
14:57 8.8 °C 7.2 °C 984.6 hPa SW 11.3 km/h 25.7 km/h 90 % 0.5 mm
15:02 8.9 °C 7.3 °C 984.6 hPa SW 12.9 km/h 27.4 km/h 90 % 0.5 mm
15:07 8.9 °C 7.3 °C 984.3 hPa SW 9.7 km/h 27.4 km/h 90 % 0.5 mm
15:12 9.1 °C 7.5 °C 984.6 hPa South 14.5 km/h 29.0 km/h 90 % 0.5 mm
15:22 8.9 °C 7.5 °C 984.6 hPa SW 11.3 km/h 29.0 km/h 91 % 0.5 mm
15:27 9.1 °C 7.7 °C 984.6 hPa SW 8.0 km/h 25.7 km/h 91 % 0.8 mm
15:32 9.2 °C 7.8 °C 984.6 hPa SSW 12.9 km/h 38.6 km/h 91 % 0.8 mm
15:37 9.3 °C 7.7 °C 984.6 hPa WSW 16.1 km/h 38.6 km/h 90 % 0.8 mm
15:42 9.3 °C 7.7 °C 984.6 hPa WSW 14.5 km/h 38.6 km/h 90 % 0.8 mm
15:47 9.5 °C 7.8 °C 984.6 hPa SW 16.1 km/h 32.2 km/h 89 % 0.5 mm
15:52 9.7 °C 7.8 °C 984.3 hPa WSW 20.9 km/h 32.2 km/h 88 % 0.5 mm
16:02 9.9 °C 7.7 °C 984.3 hPa WSW 17.7 km/h 35.4 km/h 86 % 0.5 mm
16:12 10.0 °C 7.4 °C 984.6 hPa WSW 24.1 km/h 30.6 km/h 84 % 0.5 mm
16:17 10.1 °C 7.5 °C 984.6 hPa SW 12.9 km/h 41.8 km/h 84 % 0.3 mm
16:22 10.1 °C 7.3 °C 984.6 hPa SW 11.3 km/h 41.8 km/h 83 % 0.3 mm
16:32 10.0 °C 7.4 °C 984.6 hPa WSW 12.9 km/h 29.0 km/h 84 % 0.0 mm
16:37 10.0 °C 7.4 °C 985.0 hPa SW 8.0 km/h 29.0 km/h 84 % 0.0 mm
16:42 9.8 °C 7.4 °C 985.0 hPa SW 9.7 km/h 30.6 km/h 85 % 0.0 mm
16:47 9.8 °C 7.2 °C 985.0 hPa SW 14.5 km/h 30.6 km/h 84 % 0.0 mm
16:52 9.8 °C 7.4 °C 985.3 hPa SW 12.9 km/h 32.2 km/h 85 % 0.0 mm
17:02 9.8 °C 7.4 °C 985.3 hPa SW 14.5 km/h 35.4 km/h 85 % 0.0 mm
17:12 9.7 °C 7.5 °C 985.7 hPa SW 17.7 km/h 32.2 km/h 86 % 0.0 mm
17:17 9.4 °C 7.0 °C 985.7 hPa SW 22.5 km/h 30.6 km/h 85 % 0.0 mm
17:22 9.3 °C 6.9 °C 985.7 hPa SW 14.5 km/h 32.2 km/h 85 % 0.3 mm
17:32 9.2 °C 7.3 °C 985.7 hPa SW 17.7 km/h 29.0 km/h 88 % 0.3 mm
17:37 9.2 °C 7.3 °C 985.7 hPa SW 9.7 km/h 37.0 km/h 88 % 0.3 mm
17:42 9.3 °C 6.9 °C 986.0 hPa South 8.0 km/h 37.0 km/h 85 % 0.3 mm
17:47 9.4 °C 6.8 °C 986.0 hPa SW 8.0 km/h 37.0 km/h 84 % 0.3 mm
17:52 9.4 °C 6.7 °C 986.0 hPa South 6.4 km/h 29.0 km/h 83 % 0.3 mm
17:57 9.3 °C 6.6 °C 986.3 hPa SSW 19.3 km/h 24.1 km/h 83 % 0.3 mm
18:02 9.3 °C 6.6 °C 986.3 hPa SSE 14.5 km/h 29.0 km/h 83 % 0.3 mm
18:07 9.3 °C 6.7 °C 986.3 hPa SW 24.1 km/h 29.0 km/h 84 % 0.3 mm
18:12 9.2 °C 6.8 °C 986.3 hPa SW 6.4 km/h 29.0 km/h 85 % 0.3 mm
18:22 9.2 °C 7.0 °C 986.7 hPa SW 11.3 km/h 24.1 km/h 86 % 0.0 mm
18:27 9.2 °C 7.0 °C 986.7 hPa WSW 14.5 km/h 20.9 km/h 86 % 0.0 mm
18:32 9.2 °C 7.0 °C 986.7 hPa WSW 12.9 km/h 24.1 km/h 86 % 0.0 mm
18:37 9.1 °C 7.1 °C 986.7 hPa WSW 11.3 km/h 24.1 km/h 87 % 0.0 mm
18:42 8.9 °C 6.9 °C 986.7 hPa SSW 12.9 km/h 24.1 km/h 87 % 0.0 mm
18:52 8.8 °C 6.9 °C 987.4 hPa WSW 12.9 km/h 20.9 km/h 88 % 0.0 mm
19:02 8.8 °C 7.1 °C 987.0 hPa SSE 12.9 km/h 22.5 km/h 89 % 0.0 mm
19:07 8.8 °C 7.1 °C 987.4 hPa SSW 9.7 km/h 22.5 km/h 89 % 0.0 mm
19:12 8.8 °C 6.9 °C 987.4 hPa SSW 4.8 km/h 22.5 km/h 88 % 0.0 mm
19:17 8.9 °C 7.0 °C 987.4 hPa WSW 12.9 km/h 19.3 km/h 88 % 0.0 mm
19:22 8.8 °C 6.9 °C 987.4 hPa WSW 4.8 km/h 30.6 km/h 88 % 0.3 mm
19:27 8.7 °C 7.2 °C 987.4 hPa WSW 19.3 km/h 30.6 km/h 90 % 0.3 mm
19:32 8.6 °C 6.9 °C 987.4 hPa SW 11.3 km/h 27.4 km/h 89 % 0.5 mm
19:37 8.6 °C 6.9 °C 987.4 hPa SSW 8.0 km/h 24.1 km/h 89 % 0.5 mm
19:42 8.6 °C 6.7 °C 987.4 hPa SW 11.3 km/h 38.6 km/h 88 % 0.5 mm
19:47 8.6 °C 6.7 °C 987.4 hPa WSW 17.7 km/h 38.6 km/h 88 % 0.5 mm
19:52 8.6 °C 6.7 °C 987.4 hPa South 9.7 km/h 38.6 km/h 88 % 0.5 mm
19:57 8.6 °C 6.7 °C 987.7 hPa WNW 8.0 km/h 30.6 km/h 88 % 0.5 mm
20:02 8.6 °C 6.7 °C 987.7 hPa SSW 9.7 km/h 30.6 km/h 88 % 0.5 mm
20:07 8.5 °C 6.6 °C 987.7 hPa SSE 12.9 km/h 30.6 km/h 88 % 0.5 mm
20:12 8.5 °C 6.6 °C 987.7 hPa WSW 9.7 km/h 29.0 km/h 88 % 0.5 mm
20:17 8.5 °C 6.6 °C 987.7 hPa WSW 12.9 km/h 29.0 km/h 88 % 0.5 mm
20:22 8.5 °C 6.6 °C 987.7 hPa WSW 8.0 km/h 29.0 km/h 88 % 0.3 mm
20:27 8.5 °C 6.6 °C 988.0 hPa SW 9.7 km/h 32.2 km/h 88 % 0.0 mm
20:37 8.5 °C 6.8 °C 988.0 hPa SW 9.7 km/h 32.2 km/h 89 % 0.0 mm
20:42 8.4 °C 6.7 °C 988.0 hPa SW 12.9 km/h 30.6 km/h 89 % 0.0 mm
20:47 8.4 °C 6.5 °C 988.0 hPa West 4.8 km/h 29.0 km/h 88 % 0.0 mm
20:52 8.4 °C 6.5 °C 988.0 hPa WSW 9.7 km/h 29.0 km/h 88 % 0.0 mm
20:57 8.4 °C 6.5 °C 988.0 hPa WSW 8.0 km/h 32.2 km/h 88 % 0.0 mm
21:02 8.3 °C 6.4 °C 988.0 hPa SSW 11.3 km/h 32.2 km/h 88 % 0.0 mm
21:17 8.2 °C 6.3 °C 988.4 hPa SW 11.3 km/h 29.0 km/h 88 % 0.0 mm
21:22 8.2 °C 6.2 °C 988.4 hPa SW 9.7 km/h 29.0 km/h 87 % 0.0 mm
21:27 8.2 °C 6.2 °C 988.7 hPa SW 11.3 km/h 29.0 km/h 87 % 0.0 mm
21:32 8.1 °C 6.1 °C 988.7 hPa West 4.8 km/h 29.0 km/h 87 % 0.0 mm
21:37 8.1 °C 6.1 °C 989.1 hPa South 9.7 km/h 29.0 km/h 87 % 0.0 mm
21:42 7.9 °C 5.9 °C 989.1 hPa SSW 17.7 km/h 25.7 km/h 87 % 0.0 mm
21:47 7.9 °C 6.0 °C 989.1 hPa WSW 4.8 km/h 25.7 km/h 88 % 0.0 mm
21:57 7.9 °C 6.0 °C 989.1 hPa SW 14.5 km/h 24.1 km/h 88 % 0.0 mm
22:02 7.9 °C 6.2 °C 989.1 hPa WSW 11.3 km/h 24.1 km/h 89 % 0.0 mm
22:07 7.9 °C 6.2 °C 989.1 hPa SSW 4.8 km/h 24.1 km/h 89 % 0.0 mm
22:12 7.9 °C 6.2 °C 988.7 hPa SW 6.4 km/h 20.9 km/h 89 % 0.0 mm
22:17 7.8 °C 6.1 °C 989.1 hPa SW 4.8 km/h 20.9 km/h 89 % 0.0 mm
22:22 7.8 °C 6.1 °C 989.1 hPa SE 1.6 km/h 24.1 km/h 89 % 0.0 mm
22:32 7.8 °C 6.1 °C 989.1 hPa SW 6.4 km/h 20.9 km/h 89 % 0.0 mm
22:37 7.8 °C 6.1 °C 989.1 hPa SW 3.2 km/h 20.9 km/h 89 % 0.0 mm
22:42 7.7 °C 6.2 °C 989.1 hPa South 6.4 km/h 20.9 km/h 90 % 0.0 mm
22:47 7.7 °C 6.2 °C 989.4 hPa SW 11.3 km/h 17.7 km/h 90 % 0.0 mm
22:52 7.7 °C 6.2 °C 989.4 hPa SSW 3.2 km/h 17.7 km/h 90 % 0.0 mm
22:57 7.6 °C 6.1 °C 989.4 hPa South 4.8 km/h 17.7 km/h 90 % 0.0 mm
23:02 7.6 °C 6.1 °C 989.4 hPa SW 4.8 km/h 16.1 km/h 90 % 0.0 mm
23:12 7.6 °C 6.1 °C 989.1 hPa SSW 1.6 km/h 14.5 km/h 90 % 0.0 mm
23:17 7.6 °C 6.1 °C 989.1 hPa WSW 4.8 km/h 14.5 km/h 90 % 0.0 mm
23:22 7.5 °C 6.0 °C 989.1 hPa South 1.6 km/h 17.7 km/h 90 % 0.0 mm
23:27 7.4 °C 5.9 °C 989.1 hPa WSW 4.8 km/h 17.7 km/h 90 % 0.0 mm
23:32 7.4 °C 6.0 °C 989.1 hPa SSW 4.8 km/h 14.5 km/h 91 % 0.0 mm
23:37 7.3 °C 5.9 °C 989.1 hPa West 1.6 km/h 14.5 km/h 91 % 0.0 mm
23:42 7.3 °C 5.9 °C 989.1 hPa SW 1.6 km/h 16.1 km/h 91 % 0.0 mm
23:52 7.4 °C 6.0 °C 989.1 hPa SW 4.8 km/h 17.7 km/h 91 % 0.0 mm
23:57 7.4 °C 6.0 °C 989.1 hPa SW 1.6 km/h 17.7 km/h 91 % 0.0 mm
Meteo18
Compliments of Weather Underground - 4 mb

Script developed by  Jim McMurry - jmcmurry@mwt.net Adapted for the template by  Wim van der Kuil - Leuven-Template.eu

You find our weather info also at:

European Weather Network

Weather Underground

Equipment we use:

Weather-station
Davis Vue

Weather-program
Meteohub

Weather-server
Raspberry PI 2 B+

Provider
1 and 1

Davis Vue

Meteohub

Raspberry PI 2 B+

1 and 1